createdAt,value
2023-01-13T00:01:17.283Z,100855.47
2023-01-13T00:03:44.590Z,100868.38
2023-01-13T00:06:14.640Z,100869.88
2023-01-13T00:08:41.638Z,100870.81
2023-01-13T00:11:09.821Z,100869.22
2023-01-13T00:13:38.110Z,100873.75
2023-01-13T00:16:07.609Z,100875.84
2023-01-13T00:18:34.765Z,100867.56
2023-01-13T00:21:18.202Z,100868.72
2023-01-13T00:23:46.178Z,100874.06
2023-01-13T00:26:16.092Z,100864.78
2023-01-13T00:28:43.042Z,100858.91
2023-01-13T00:31:15.957Z,100873.63
2023-01-13T00:33:43.138Z,100865.41
2023-01-13T00:36:13.038Z,100859.50
2023-01-13T00:38:40.635Z,100866.44
2023-01-13T00:41:11.107Z,100860.38
2023-01-13T00:43:38.362Z,100853.44
2023-01-13T00:46:07.654Z,100847.03
2023-01-13T00:48:35.194Z,100843.34
2023-01-13T00:51:11.263Z,100839.44
2023-01-13T00:53:40.467Z,100843.84
2023-01-13T00:56:18.082Z,100843.53
2023-01-13T00:58:46.031Z,100850.16
2023-01-13T01:01:21.964Z,100849.53
2023-01-13T01:03:52.678Z,100849.22
2023-01-13T01:06:26.021Z,100839.63
2023-01-13T01:08:54.055Z,100844.16
2023-01-13T01:11:26.353Z,100838.59
2023-01-13T01:13:55.355Z,100842.50
2023-01-13T01:16:23.852Z,100837.47
2023-01-13T01:18:52.205Z,100828.53
2023-01-13T01:21:20.076Z,100838.50
2023-01-13T01:23:46.958Z,100827.16
2023-01-13T01:26:17.375Z,100824.97
2023-01-13T01:28:44.994Z,100829.78
2023-01-13T01:31:17.756Z,100827.16
2023-01-13T01:33:46.503Z,100825.16
2023-01-13T01:36:14.587Z,100819.38
2023-01-13T01:38:41.605Z,100817.16
2023-01-13T01:41:10.027Z,100829.56
2023-01-13T01:44:02.595Z,100824.63
2023-01-13T01:46:44.110Z,100816.09
2023-01-13T01:49:21.293Z,100816.31
2023-01-13T01:51:57.083Z,100806.00
2023-01-13T01:54:28.642Z,100807.22
2023-01-13T01:56:55.853Z,100803.78
2023-01-13T01:59:29.810Z,100807.97
2023-01-13T02:01:56.675Z,100803.03
2023-01-13T02:04:29.585Z,100808.69
2023-01-13T02:06:57.464Z,100808.09
2023-01-13T02:09:26.267Z,100805.84
2023-01-13T02:12:11.547Z,100796.50
2023-01-13T02:14:39.188Z,100792.13
2023-01-13T02:17:21.365Z,100793.00
2023-01-13T02:20:15.629Z,100791.97
2023-01-13T02:23:02.410Z,100776.69
2023-01-13T02:25:50.410Z,100769.06
2023-01-13T02:28:20.334Z,100758.66
2023-01-13T02:31:17.684Z,100759.03
2023-01-13T02:33:50.310Z,100753.59
2023-01-13T02:36:32.508Z,100748.84
2023-01-13T02:39:19.079Z,100753.78
2023-01-13T02:42:18.095Z,100751.13
2023-01-13T02:44:58.670Z,100749.63
2023-01-13T02:47:26.937Z,100748.03
2023-01-13T02:49:59.075Z,100749.00
2023-01-13T02:52:36.028Z,100747.13
2023-01-13T02:55:13.072Z,100755.34
2023-01-13T02:57:41.853Z,100758.00
2023-01-13T03:00:11.489Z,100744.03
2023-01-13T03:02:38.836Z,100743.88
2023-01-13T03:05:06.016Z,100751.63
2023-01-13T03:08:00.501Z,100751.63
2023-01-13T03:10:27.230Z,100750.56
2023-01-13T03:12:59.228Z,100745.97
2023-01-13T03:15:44.861Z,100748.81
2023-01-13T03:18:26.829Z,100744.38
2023-01-13T03:21:29.512Z,100739.25
2023-01-13T03:24:20.417Z,100737.91
2023-01-13T03:26:52.830Z,100738.09
2023-01-13T03:29:40.903Z,100730.78
2023-01-13T03:32:20.338Z,100735.94
2023-01-13T03:34:55.280Z,100731.00
2023-01-13T03:37:30.625Z,100736.03
2023-01-13T03:40:27.206Z,100732.28
2023-01-13T03:43:20.988Z,100731.41
2023-01-13T03:45:55.587Z,100725.34
2023-01-13T03:48:26.584Z,100718.63
2023-01-13T03:51:00.123Z,100721.16
2023-01-13T03:53:43.885Z,100714.31
2023-01-13T03:56:25.630Z,100713.84
2023-01-13T03:58:54.508Z,100716.56
2023-01-13T04:01:56.376Z,100707.44
2023-01-13T04:04:33.377Z,100707.34
2023-01-13T04:07:22.022Z,100715.97
2023-01-13T04:09:51.006Z,100715.22
2023-01-13T04:12:25.488Z,100710.53
2023-01-13T04:14:53.955Z,100709.03
2023-01-13T04:17:21.362Z,100709.25
2023-01-13T04:19:48.175Z,100707.88
2023-01-13T04:22:14.913Z,100711.34
2023-01-13T04:24:41.742Z,100710.63
2023-01-13T04:27:08.587Z,100722.88
2023-01-13T04:29:35.307Z,100716.59
2023-01-13T04:32:02.136Z,100731.50
2023-01-13T04:34:28.919Z,100724.66
2023-01-13T04:36:55.791Z,100738.63
2023-01-13T04:39:22.542Z,100736.09
2023-01-13T04:41:58.197Z,100734.94
2023-01-13T04:44:26.310Z,100735.03
2023-01-13T04:46:53.594Z,100728.09
2023-01-13T04:49:20.590Z,100731.66
2023-01-13T04:51:47.697Z,100727.53
2023-01-13T04:54:16.278Z,100720.75
2023-01-13T04:56:43.120Z,100728.63
2023-01-13T04:59:13.127Z,100732.69
2023-01-13T05:01:40.186Z,100737.31
2023-01-13T05:04:07.896Z,100735.84
2023-01-13T05:06:34.852Z,100734.66
2023-01-13T05:09:01.671Z,100731.72
2023-01-13T05:11:47.059Z,100727.81
2023-01-13T05:14:32.295Z,100728.56
2023-01-13T05:17:02.005Z,100728.03
2023-01-13T05:19:34.066Z,100727.16
2023-01-13T05:22:20.794Z,100729.50
2023-01-13T05:25:06.442Z,100733.91
2023-01-13T05:27:33.845Z,100726.53
2023-01-13T05:30:01.046Z,100733.38
2023-01-13T05:32:28.348Z,100734.09
2023-01-13T05:34:55.960Z,100733.84
2023-01-13T05:37:23.634Z,100736.94
2023-01-13T05:40:08.952Z,100733.44
2023-01-13T05:42:54.272Z,100725.06
2023-01-13T05:45:21.487Z,100725.78
2023-01-13T05:47:48.433Z,100724.41
2023-01-13T05:50:16.155Z,100725.88
2023-01-13T05:52:43.604Z,100724.28
2023-01-13T05:55:11.771Z,100726.53
2023-01-13T05:57:38.535Z,100731.03
2023-01-13T06:00:05.929Z,100722.13
2023-01-13T06:02:38.425Z,100727.56
2023-01-13T06:05:05.471Z,100726.34
2023-01-13T06:07:32.181Z,100720.84
2023-01-13T06:09:59.471Z,100724.19
2023-01-13T06:12:26.278Z,100725.50
2023-01-13T06:14:53.139Z,100726.13
2023-01-13T06:17:19.840Z,100731.97
2023-01-13T06:19:46.683Z,100733.09
2023-01-13T06:22:17.367Z,100732.06
2023-01-13T06:24:47.258Z,100734.78
2023-01-13T06:27:15.472Z,100733.50
2023-01-13T06:29:42.463Z,100730.56
2023-01-13T06:32:17.318Z,100725.53
2023-01-13T06:34:51.088Z,100726.28
2023-01-13T06:37:21.677Z,100735.19
2023-01-13T06:39:49.414Z,100723.94
2023-01-13T06:42:34.946Z,100736.38
2023-01-13T06:45:01.973Z,100731.34
2023-01-13T06:47:28.844Z,100749.78
2023-01-13T06:49:55.746Z,100741.56
2023-01-13T06:52:23.569Z,100740.06
2023-01-13T06:54:50.407Z,100741.38
2023-01-13T06:57:17.203Z,100728.06
2023-01-13T06:59:44.101Z,100711.38
2023-01-13T07:02:10.976Z,100719.72
2023-01-13T07:04:37.817Z,100714.75
2023-01-13T07:07:04.544Z,100712.41
2023-01-13T07:09:31.333Z,100706.63
2023-01-13T07:11:58.096Z,100701.88
2023-01-13T07:14:43.397Z,100707.44
2023-01-13T07:17:10.277Z,100713.72
2023-01-13T07:19:37.134Z,100719.41
2023-01-13T07:22:04.022Z,100724.81
2023-01-13T07:24:30.908Z,100724.72
2023-01-13T07:26:57.949Z,100726.97
2023-01-13T07:29:24.797Z,100729.38
2023-01-13T07:31:51.596Z,100719.88
2023-01-13T07:34:18.543Z,100721.72
2023-01-13T07:36:45.293Z,100731.19
2023-01-13T07:39:12.176Z,100717.66
2023-01-13T07:41:57.574Z,100716.41
2023-01-13T07:44:24.432Z,100711.09
2023-01-13T07:46:51.187Z,100704.59
2023-01-13T07:49:18.012Z,100702.84
2023-01-13T07:51:44.720Z,100698.66
2023-01-13T07:54:11.624Z,100695.19
2023-01-13T07:56:38.353Z,100688.91
2023-01-13T07:59:05.225Z,100678.66
2023-01-13T08:01:32.280Z,100674.47
2023-01-13T08:03:59.236Z,100669.56
2023-01-13T08:06:26.468Z,100665.66
2023-01-13T08:08:53.263Z,100675.16
2023-01-13T08:11:23.340Z,100671.19
2023-01-13T08:13:50.630Z,100685.72
2023-01-13T08:16:17.553Z,100684.41
2023-01-13T08:18:44.385Z,100683.81
2023-01-13T08:21:14.986Z,100700.78
2023-01-13T08:23:43.756Z,100716.72
2023-01-13T08:26:13.653Z,100710.59
2023-01-13T08:28:41.013Z,100712.47
2023-01-13T08:31:11.563Z,100722.00
2023-01-13T08:33:39.098Z,100724.91
2023-01-13T08:36:07.882Z,100731.09
2023-01-13T08:38:35.215Z,100736.78
2023-01-13T08:41:08.150Z,100735.84
2023-01-13T08:43:35.165Z,100740.56
2023-01-13T08:46:04.844Z,100753.50
2023-01-13T08:48:31.949Z,100766.56
2023-01-13T08:51:07.789Z,100768.72
2023-01-13T08:53:35.288Z,100761.66
2023-01-13T08:56:02.146Z,100758.28
2023-01-13T08:58:29.048Z,100749.63
2023-01-13T09:00:55.956Z,100767.63
2023-01-13T09:03:22.908Z,100763.13
2023-01-13T09:05:49.625Z,100765.84
2023-01-13T09:08:16.372Z,100767.09
2023-01-13T09:10:43.267Z,100766.28
2023-01-13T09:13:13.690Z,100761.31
2023-01-13T09:15:45.994Z,100762.38
2023-01-13T09:18:13.083Z,100763.75
2023-01-13T09:20:40.230Z,100760.69
2023-01-13T09:23:10.063Z,100758.44
2023-01-13T09:25:37.757Z,100762.78
2023-01-13T09:28:08.599Z,100770.13
2023-01-13T09:30:36.810Z,100752.31
2023-01-13T09:33:22.109Z,100741.28
2023-01-13T09:35:48.897Z,100741.72
2023-01-13T09:38:15.683Z,100742.78
2023-01-13T09:40:44.010Z,100748.03
2023-01-13T09:43:53.879Z,100735.91
2023-01-13T09:46:43.140Z,100729.16
2023-01-13T09:49:22.959Z,100735.53
2023-01-13T09:51:59.097Z,100738.88
2023-01-13T09:54:34.543Z,100736.34
2023-01-13T09:57:01.565Z,100724.66
2023-01-13T09:59:34.659Z,100729.72
2023-01-13T10:02:30.935Z,100727.59
2023-01-13T10:05:03.979Z,100738.16
2023-01-13T10:07:34.549Z,100734.97
2023-01-13T10:10:03.438Z,100725.50
2023-01-13T10:12:50.233Z,100720.13
2023-01-13T10:15:21.483Z,100712.75
2023-01-13T10:17:56.540Z,100705.19
2023-01-13T10:20:34.883Z,100709.25
2023-01-13T10:23:46.951Z,100698.84
2023-01-13T10:26:34.451Z,100688.81
2023-01-13T10:29:01.265Z,100690.50
2023-01-13T10:31:28.201Z,100688.69
2023-01-13T10:34:00.442Z,100692.75
2023-01-13T10:36:27.696Z,100684.75
2023-01-13T10:39:07.127Z,100682.09
2023-01-13T10:41:36.203Z,100672.53
2023-01-13T10:44:17.150Z,100667.34
2023-01-13T10:46:55.662Z,100665.78
2023-01-13T10:49:32.935Z,100656.88
2023-01-13T10:52:02.019Z,100655.44
2023-01-13T10:54:29.716Z,100655.41
2023-01-13T10:57:23.011Z,100655.22
2023-01-13T10:59:51.099Z,100642.25
2023-01-13T11:02:33.356Z,100643.34
2023-01-13T11:05:24.224Z,100638.13
2023-01-13T11:07:55.047Z,100636.31
2023-01-13T11:10:27.604Z,100628.22
2023-01-13T11:13:31.326Z,100617.72
2023-01-13T11:16:03.506Z,100613.13
2023-01-13T11:18:52.124Z,100599.75
2023-01-13T11:21:27.916Z,100604.47
2023-01-13T11:24:18.804Z,100610.56
2023-01-13T11:26:59.383Z,100601.69
2023-01-13T11:29:33.310Z,100588.69
2023-01-13T11:32:20.168Z,100582.47
2023-01-13T11:34:54.534Z,100574.50
2023-01-13T11:37:40.664Z,100586.81
2023-01-13T11:40:21.478Z,100585.94
2023-01-13T11:43:11.438Z,100584.13
2023-01-13T11:45:44.111Z,100587.09
2023-01-13T11:48:17.819Z,100575.09
2023-01-13T11:50:56.189Z,100577.94
2023-01-13T11:53:47.404Z,100566.72
2023-01-13T11:56:39.047Z,100566.59
2023-01-13T11:59:24.310Z,100560.91
2023-01-13T12:02:22.272Z,100546.59
2023-01-13T12:05:10.889Z,100537.34
2023-01-13T12:08:15.271Z,100523.13
2023-01-13T12:10:54.190Z,100532.38
2023-01-13T12:13:46.460Z,100519.63
2023-01-13T12:16:28.639Z,100535.22
2023-01-13T12:19:20.067Z,100527.03
2023-01-13T12:21:46.870Z,100531.59
2023-01-13T12:24:22.890Z,100536.31
2023-01-13T12:27:01.922Z,100527.63
2023-01-13T12:29:33.475Z,100524.16
2023-01-13T12:32:03.942Z,100525.59
2023-01-13T12:34:47.411Z,100517.31
2023-01-13T12:37:17.390Z,100515.06
2023-01-13T12:40:01.674Z,100515.09
2023-01-13T12:43:00.740Z,100506.47
2023-01-13T12:45:30.315Z,100525.41
2023-01-13T12:47:58.437Z,100520.94
2023-01-13T12:50:25.104Z,100521.91
2023-01-13T12:52:53.546Z,100527.06
2023-01-13T12:55:25.173Z,100512.19
2023-01-13T12:57:55.973Z,100511.47
2023-01-13T13:00:23.386Z,100517.56
2023-01-13T13:03:12.267Z,100527.59
2023-01-13T13:05:58.080Z,100531.50
2023-01-13T13:08:47.220Z,100524.38
2023-01-13T13:11:32.703Z,100529.38
2023-01-13T13:14:01.420Z,100527.44
2023-01-13T13:16:31.011Z,100524.81
2023-01-13T13:19:22.818Z,100534.56
2023-01-13T13:22:16.662Z,100532.03
2023-01-13T13:24:49.743Z,100526.47
2023-01-13T13:27:35.880Z,100532.97
2023-01-13T13:30:30.316Z,100528.91
2023-01-13T13:33:12.028Z,100528.19
2023-01-13T13:36:02.928Z,100529.13
2023-01-13T13:39:25.005Z,100518.19
2023-01-13T13:42:17.034Z,100516.19
2023-01-13T13:45:06.655Z,100515.09
2023-01-13T13:47:37.932Z,100527.63
2023-01-13T13:50:14.479Z,100515.78
2023-01-13T13:53:05.499Z,100525.50
2023-01-13T13:55:33.019Z,100521.34
2023-01-13T13:58:01.667Z,100528.13
2023-01-13T14:00:32.122Z,100519.22
2023-01-13T14:03:02.156Z,100516.97
2023-01-13T14:05:30.120Z,100514.34
2023-01-13T14:08:09.643Z,100515.97
2023-01-13T14:10:38.871Z,100516.38
2023-01-13T14:13:17.950Z,100519.63
2023-01-13T14:15:46.236Z,100517.22
2023-01-13T14:18:17.484Z,100527.41
2023-01-13T14:20:52.100Z,100533.91
2023-01-13T14:23:22.691Z,100535.00
2023-01-13T14:25:50.975Z,100534.81
2023-01-13T14:28:30.202Z,100537.16
2023-01-13T14:30:57.512Z,100538.50
2023-01-13T14:33:49.355Z,100544.94
2023-01-13T14:36:20.887Z,100539.38
2023-01-13T14:39:02.898Z,100550.28
2023-01-13T14:41:50.949Z,100549.88
2023-01-13T14:44:48.858Z,100550.22
2023-01-13T14:47:28.185Z,100541.13
2023-01-13T14:50:11.649Z,100548.91
2023-01-13T14:52:57.031Z,100552.66
2023-01-13T14:55:32.644Z,100559.59
2023-01-13T14:58:21.528Z,100552.22
2023-01-13T15:00:49.722Z,100562.31
2023-01-13T15:03:18.122Z,100558.94
2023-01-13T15:05:52.853Z,100558.13
2023-01-13T15:08:28.116Z,100564.63
2023-01-13T15:11:01.396Z,100575.91
2023-01-13T15:13:47.017Z,100562.09
2023-01-13T15:16:25.421Z,100553.16
2023-01-13T15:18:53.807Z,100555.94
2023-01-13T15:21:21.032Z,100550.06
2023-01-13T15:23:47.930Z,100549.09
2023-01-13T15:26:17.875Z,100542.66
2023-01-13T15:28:44.579Z,100551.53
2023-01-13T15:31:11.476Z,100552.47
2023-01-13T15:33:38.575Z,100559.81
2023-01-13T15:36:11.381Z,100562.69
2023-01-13T15:38:38.332Z,100560.44
2023-01-13T15:41:05.277Z,100550.72
2023-01-13T15:43:50.724Z,100557.81
2023-01-13T15:46:37.086Z,100550.97
2023-01-13T15:49:18.346Z,100549.69
2023-01-13T15:51:45.170Z,100558.53
2023-01-13T15:54:12.729Z,100556.63
2023-01-13T15:56:39.683Z,100563.81
2023-01-13T15:59:13.883Z,100557.59
2023-01-13T16:01:40.764Z,100566.44
2023-01-13T16:04:09.554Z,100556.16
2023-01-13T16:06:37.273Z,100556.16
2023-01-13T16:09:05.350Z,100558.78
2023-01-13T16:11:32.213Z,100567.56
2023-01-13T16:13:59.377Z,100569.22
2023-01-13T16:16:28.472Z,100573.06
2023-01-13T16:18:56.320Z,100567.91
2023-01-13T16:21:23.721Z,100565.66
2023-01-13T16:23:51.518Z,100571.31
2023-01-13T16:26:24.567Z,100573.69
2023-01-13T16:28:53.116Z,100566.88
2023-01-13T16:31:24.365Z,100569.50
2023-01-13T16:33:52.200Z,100571.41
2023-01-13T16:36:20.376Z,100575.34
2023-01-13T16:38:48.507Z,100584.19
2023-01-13T16:41:15.608Z,100582.78
2023-01-13T16:43:42.857Z,100589.75
2023-01-13T16:46:17.240Z,100604.59
2023-01-13T16:48:44.396Z,100605.22
2023-01-13T16:51:11.140Z,100607.84
2023-01-13T16:53:38.070Z,100605.09
2023-01-13T16:56:17.458Z,100599.81
2023-01-13T16:58:44.307Z,100602.59
2023-01-13T17:01:29.569Z,100608.22
2023-01-13T17:03:58.189Z,100608.09
2023-01-13T17:06:31.754Z,100610.13
2023-01-13T17:09:04.879Z,100612.28
2023-01-13T17:11:32.229Z,100609.66
2023-01-13T17:13:59.276Z,100608.22
2023-01-13T17:16:26.603Z,100611.59
2023-01-13T17:18:54.175Z,100606.06
2023-01-13T17:21:20.882Z,100613.03
2023-01-13T17:23:47.647Z,100608.69
2023-01-13T17:26:38.654Z,100607.13
2023-01-13T17:29:08.777Z,100607.97
2023-01-13T17:31:36.176Z,100611.78
2023-01-13T17:34:04.473Z,100611.78
2023-01-13T17:36:31.945Z,100611.34
2023-01-13T17:38:58.974Z,100613.47
2023-01-13T17:41:26.300Z,100620.19
2023-01-13T17:43:53.826Z,100622.56
2023-01-13T17:46:22.912Z,100624.50
2023-01-13T17:48:53.701Z,100618.16
2023-01-13T17:51:22.652Z,100622.13
2023-01-13T17:53:49.675Z,100626.66
2023-01-13T17:56:17.190Z,100630.34
2023-01-13T17:58:45.480Z,100637.44
2023-01-13T18:01:20.262Z,100650.72
2023-01-13T18:03:47.735Z,100648.91
2023-01-13T18:06:21.662Z,100644.72
2023-01-13T18:08:48.804Z,100644.47
2023-01-13T18:11:20.029Z,100647.03
2023-01-13T18:13:54.844Z,100653.00
2023-01-13T18:16:22.179Z,100649.75
2023-01-13T18:18:51.876Z,100650.09
2023-01-13T18:21:45.172Z,100656.09
2023-01-13T18:24:32.592Z,100653.22
2023-01-13T18:27:18.084Z,100660.91
2023-01-13T18:29:50.021Z,100668.81
2023-01-13T18:32:16.976Z,100667.13
2023-01-13T18:34:44.025Z,100661.50
2023-01-13T18:37:13.390Z,100669.03
2023-01-13T18:39:40.182Z,100672.84
2023-01-13T18:42:26.612Z,100684.84
2023-01-13T18:44:56.080Z,100686.84
2023-01-13T18:47:28.750Z,100689.75
2023-01-13T18:49:56.937Z,100687.09
2023-01-13T18:52:24.832Z,100701.13
2023-01-13T18:54:51.980Z,100699.69
2023-01-13T18:57:18.780Z,100704.34
2023-01-13T18:59:45.737Z,100709.59
2023-01-13T19:02:20.682Z,100710.28
2023-01-13T19:04:47.929Z,100713.53
2023-01-13T19:07:22.305Z,100710.69
2023-01-13T19:09:50.155Z,100722.38
2023-01-13T19:12:25.898Z,100723.34
2023-01-13T19:14:57.434Z,100724.78
2023-01-13T19:17:26.621Z,100742.41
2023-01-13T19:19:55.711Z,100734.63
2023-01-13T19:22:33.522Z,100742.91
2023-01-13T19:25:02.122Z,100738.34
2023-01-13T19:27:29.282Z,100740.84
2023-01-13T19:29:58.762Z,100745.16
2023-01-13T19:32:26.175Z,100743.47
2023-01-13T19:34:55.036Z,100741.41
2023-01-13T19:37:22.059Z,100733.97
2023-01-13T19:39:48.963Z,100737.78
2023-01-13T19:42:34.115Z,100750.81
2023-01-13T19:45:19.422Z,100751.91
2023-01-13T19:47:46.472Z,100759.63
2023-01-13T19:50:14.031Z,100754.59
2023-01-13T19:52:42.338Z,100762.38
2023-01-13T19:55:10.940Z,100762.97
2023-01-13T19:57:39.529Z,100781.06
2023-01-13T20:00:07.914Z,100774.22
2023-01-13T20:02:44.919Z,100774.66
2023-01-13T20:05:12.856Z,100770.81
2023-01-13T20:07:39.856Z,100767.59
2023-01-13T20:10:07.405Z,100767.91
2023-01-13T20:12:34.162Z,100745.19
2023-01-13T20:15:00.935Z,100740.00
2023-01-13T20:17:27.787Z,100747.09
2023-01-13T20:19:54.829Z,100743.66
2023-01-13T20:22:21.602Z,100751.78
2023-01-13T20:24:52.155Z,100763.28
2023-01-13T20:27:19.099Z,100766.63
2023-01-13T20:29:45.860Z,100777.88
2023-01-13T20:32:12.654Z,100787.13
2023-01-13T20:34:39.417Z,100777.66
2023-01-13T20:37:06.314Z,100758.59
2023-01-13T20:39:34.034Z,100755.75
2023-01-13T20:42:19.034Z,100753.34
2023-01-13T20:44:46.817Z,100762.91
2023-01-13T20:47:14.559Z,100769.13
2023-01-13T20:49:41.553Z,100777.25
2023-01-13T20:52:11.185Z,100784.94
2023-01-13T20:54:40.245Z,100797.03
2023-01-13T20:57:09.969Z,100791.16
2023-01-13T20:59:37.842Z,100799.53
2023-01-13T21:02:07.124Z,100790.69
2023-01-13T21:04:34.280Z,100794.19
2023-01-13T21:07:00.996Z,100795.84
2023-01-13T21:09:27.897Z,100795.72
2023-01-13T21:12:13.196Z,100799.63
2023-01-13T21:14:58.632Z,100798.53
2023-01-13T21:17:44.165Z,100822.22
2023-01-13T21:20:13.400Z,100830.34
2023-01-13T21:22:43.829Z,100833.50
2023-01-13T21:25:12.219Z,100839.59
2023-01-13T21:27:39.386Z,100845.94
2023-01-13T21:30:06.726Z,100860.91
2023-01-13T21:32:33.544Z,100855.16
2023-01-13T21:35:01.898Z,100855.50
2023-01-13T21:37:28.735Z,100852.50
2023-01-13T21:39:55.713Z,100858.63
2023-01-13T21:42:40.968Z,100863.66
2023-01-13T21:45:29.356Z,100854.91
2023-01-13T21:47:56.644Z,100873.94
2023-01-13T21:50:28.209Z,100890.50
2023-01-13T21:52:56.084Z,100920.25
2023-01-13T21:55:26.957Z,100927.09
2023-01-13T21:57:58.195Z,100945.91
2023-01-13T22:00:27.750Z,100950.34
2023-01-13T22:02:55.050Z,100944.88
2023-01-13T22:05:24.388Z,100957.47
2023-01-13T22:07:52.378Z,100898.50
2023-01-13T22:10:25.075Z,100825.13
2023-01-13T22:12:57.025Z,100863.38
2023-01-13T22:15:29.230Z,100852.31
2023-01-13T22:17:56.608Z,100864.72
2023-01-13T22:20:23.608Z,100890.09
2023-01-13T22:22:50.421Z,100895.69
2023-01-13T22:25:19.961Z,100877.34
2023-01-13T22:27:48.321Z,100880.84
2023-01-13T22:30:18.968Z,100868.28
2023-01-13T22:32:46.565Z,100867.28
2023-01-13T22:35:15.241Z,100868.63
2023-01-13T22:37:42.530Z,100867.69
2023-01-13T22:40:12.179Z,100874.34
2023-01-13T22:42:42.862Z,100890.22
2023-01-13T22:45:12.358Z,100897.06
2023-01-13T22:47:39.244Z,100894.34
2023-01-13T22:50:07.555Z,100891.94
2023-01-13T22:52:35.193Z,100891.44
2023-01-13T22:55:02.132Z,100895.63
2023-01-13T22:57:36.676Z,100897.31
2023-01-13T23:00:14.940Z,100884.38
2023-01-13T23:02:42.031Z,100877.75
2023-01-13T23:05:08.991Z,100891.97
2023-01-13T23:07:36.190Z,100892.19
2023-01-13T23:10:04.068Z,100892.19
2023-01-13T23:12:31.165Z,100883.38
2023-01-13T23:14:57.951Z,100873.72
2023-01-13T23:17:24.841Z,100893.25
2023-01-13T23:19:51.643Z,100882.94
2023-01-13T23:22:18.746Z,100892.97
2023-01-13T23:24:46.015Z,100906.03
2023-01-13T23:27:12.988Z,100886.88
2023-01-13T23:29:39.792Z,100889.31
2023-01-13T23:32:06.653Z,100889.09
2023-01-13T23:34:33.493Z,100889.81
2023-01-13T23:37:00.289Z,100889.09
2023-01-13T23:39:27.083Z,100891.38
2023-01-13T23:41:54.557Z,100888.13
2023-01-13T23:44:21.375Z,100884.97
2023-01-13T23:46:48.065Z,100886.16
2023-01-13T23:49:14.836Z,100882.88
2023-01-13T23:51:41.672Z,100879.41
2023-01-13T23:54:08.406Z,100873.44
2023-01-13T23:56:39.266Z,100878.47
2023-01-13T23:59:06.706Z,100876.16
